createdAt,value
2019-04-28T00:01:21.458Z,101162.91
2019-04-28T00:03:51.560Z,101155.75
2019-04-28T00:06:21.098Z,101158.29
2019-04-28T00:08:51.650Z,101159.63
2019-04-28T00:11:19.303Z,101164.34
2019-04-28T00:13:53.163Z,101168.30
2019-04-28T00:16:22.886Z,101172.93
2019-04-28T00:18:51.049Z,101168.70
2019-04-28T00:21:24.135Z,101167.67
2019-04-28T00:24:09.142Z,101169.77
2019-04-28T00:26:41.104Z,101169.67
2019-04-28T00:29:11.134Z,101175.77
2019-04-28T00:31:41.335Z,101177.10
2019-04-28T00:34:11.445Z,101180.00
2019-04-28T00:36:43.015Z,101185.70
2019-04-28T00:39:12.183Z,101180.36
2019-04-28T00:41:42.010Z,101191.39
2019-04-28T00:44:12.072Z,101189.34
2019-04-28T00:46:42.150Z,101191.27
2019-04-28T00:49:11.896Z,101186.41
2019-04-28T00:51:41.538Z,101188.10
2019-04-28T00:54:12.135Z,101189.66
2019-04-28T00:56:41.764Z,101186.63
2019-04-28T00:59:11.776Z,101178.27
2019-04-28T01:01:47.774Z,101180.09
2019-04-28T01:04:16.324Z,101183.12
2019-04-28T01:06:44.753Z,101181.07
2019-04-28T01:09:14.269Z,101189.92
2019-04-28T01:11:43.055Z,101188.59
2019-04-28T01:14:12.170Z,101188.45
2019-04-28T01:16:45.463Z,101191.27
2019-04-28T01:19:15.542Z,101191.62
2019-04-28T01:22:01.809Z,101192.10
2019-04-28T01:24:30.248Z,101196.59
2019-04-28T01:27:00.396Z,101202.91
2019-04-28T01:29:29.535Z,101203.89
2019-04-28T01:32:00.416Z,101202.07
2019-04-28T01:34:30.052Z,101206.20
2019-04-28T01:36:59.799Z,101211.05
2019-04-28T01:39:29.653Z,101204.87
2019-04-28T01:41:59.634Z,101212.23
2019-04-28T01:44:29.573Z,101213.82
2019-04-28T01:46:59.526Z,101217.95
2019-04-28T01:49:29.460Z,101218.93
2019-04-28T01:52:00.801Z,101219.06
2019-04-28T01:54:30.353Z,101220.39
2019-04-28T01:57:01.119Z,101217.73
2019-04-28T01:59:30.211Z,101229.61
2019-04-28T02:02:00.145Z,101223.06
2019-04-28T02:04:32.166Z,101228.27
2019-04-28T02:06:59.851Z,101223.42
2019-04-28T02:09:29.697Z,101231.05
2019-04-28T02:11:58.357Z,101229.48
2019-04-28T02:14:26.919Z,101230.81
2019-04-28T02:16:55.713Z,101227.69
2019-04-28T02:19:24.265Z,101233.03
2019-04-28T02:22:03.078Z,101233.16
2019-04-28T02:24:33.163Z,101235.34
2019-04-28T02:27:01.972Z,101234.36
2019-04-28T02:29:31.096Z,101234.98
2019-04-28T02:32:02.187Z,101224.30
2019-04-28T02:34:31.221Z,101227.81
2019-04-28T02:37:01.507Z,101229.27
2019-04-28T02:39:31.191Z,101236.19
2019-04-28T02:42:01.382Z,101231.46
2019-04-28T02:44:34.083Z,101230.62
2019-04-28T02:47:00.985Z,101232.70
2019-04-28T02:49:36.970Z,101240.37
2019-04-28T02:52:07.083Z,101244.22
2019-04-28T02:54:35.520Z,101241.36
2019-04-28T02:57:03.960Z,101249.84
2019-04-28T02:59:32.387Z,101246.82
2019-04-28T03:02:00.886Z,101248.16
2019-04-28T03:04:30.763Z,101253.63
2019-04-28T03:07:01.322Z,101257.39
2019-04-28T03:09:30.591Z,101256.06
2019-04-28T03:12:01.491Z,101256.55
2019-04-28T03:14:30.647Z,101259.94
2019-04-28T03:17:00.876Z,101263.48
2019-04-28T03:19:31.089Z,101262.27
2019-04-28T03:22:01.295Z,101263.61
2019-04-28T03:24:31.589Z,101270.28
2019-04-28T03:27:03.988Z,101265.55
2019-04-28T03:29:50.401Z,101260.89
2019-04-28T03:32:45.324Z,101265.23
2019-04-28T03:35:06.460Z,101271.80
2019-04-28T03:37:34.897Z,101269.99
2019-04-28T03:40:04.538Z,101270.61
2019-04-28T03:42:33.161Z,101277.05
2019-04-28T03:45:03.220Z,101277.89
2019-04-28T03:47:31.783Z,101276.56
2019-04-28T03:50:00.468Z,101279.71
2019-04-28T03:52:31.611Z,101281.05
2019-04-28T03:55:00.590Z,101277.69
2019-04-28T03:57:31.385Z,101278.53
2019-04-28T04:00:01.494Z,101289.33
2019-04-28T04:02:31.137Z,101280.97
2019-04-28T04:05:03.281Z,101283.77
2019-04-28T04:07:31.118Z,101282.06
2019-04-28T04:10:01.542Z,101281.58
2019-04-28T04:12:31.191Z,101283.28
2019-04-28T04:15:21.376Z,101278.13
2019-04-28T04:18:03.737Z,101288.69
2019-04-28T04:20:32.390Z,101285.35
2019-04-28T04:23:01.627Z,101291.42
2019-04-28T04:25:31.316Z,101282.21
2019-04-28T04:28:03.559Z,101282.21
2019-04-28T04:30:31.262Z,101284.27
2019-04-28T04:33:01.198Z,101291.30
2019-04-28T04:35:31.602Z,101293.60
2019-04-28T04:38:00.793Z,101290.58
2019-04-28T04:40:31.639Z,101294.09
2019-04-28T04:43:01.510Z,101288.88
2019-04-28T04:45:30.723Z,101294.22
2019-04-28T04:48:00.547Z,101299.06
2019-04-28T04:50:31.426Z,101303.55
2019-04-28T04:53:02.359Z,101302.70
2019-04-28T04:55:30.886Z,101307.19
2019-04-28T04:58:00.819Z,101309.49
2019-04-28T05:00:37.016Z,101317.86
2019-04-28T05:03:10.561Z,101324.04
2019-04-28T05:05:40.901Z,101325.02
2019-04-28T05:08:10.708Z,101331.92
2019-04-28T05:10:40.369Z,101327.06
2019-04-28T05:13:10.233Z,101335.44
2019-04-28T05:15:40.079Z,101340.16
2019-04-28T05:18:10.134Z,101339.55
2019-04-28T05:20:40.194Z,101340.75
2019-04-28T05:23:09.973Z,101344.36
2019-04-28T05:25:42.840Z,101351.05
2019-04-28T05:28:11.270Z,101354.81
2019-04-28T05:30:42.863Z,101360.16
2019-04-28T05:33:11.535Z,101364.88
2019-04-28T05:35:39.703Z,101365.23
2019-04-28T05:38:09.907Z,101370.67
2019-04-28T05:40:39.856Z,101369.81
2019-04-28T05:43:10.593Z,101372.11
2019-04-28T05:45:39.704Z,101371.27
2019-04-28T05:48:09.544Z,101378.06
2019-04-28T05:50:40.220Z,101375.39
2019-04-28T05:53:30.078Z,101379.27
2019-04-28T05:56:17.954Z,101384.48
2019-04-28T05:58:48.047Z,101380.61
2019-04-28T06:01:20.526Z,101381.38
2019-04-28T06:03:49.715Z,101383.63
2019-04-28T06:06:20.494Z,101387.40
2019-04-28T06:08:53.433Z,101392.00
2019-04-28T06:11:32.705Z,101391.15
2019-04-28T06:14:01.473Z,101394.78
2019-04-28T06:16:30.569Z,101394.17
2019-04-28T06:19:00.004Z,101401.58
2019-04-28T06:21:28.132Z,101401.45
2019-04-28T06:23:56.617Z,101402.28
2019-04-28T06:26:25.075Z,101408.36
2019-04-28T06:28:53.502Z,101409.70
2019-04-28T06:31:22.049Z,101417.45
2019-04-28T06:33:50.558Z,101418.43
2019-04-28T06:36:18.999Z,101421.09
2019-04-28T06:38:47.605Z,101427.77
2019-04-28T06:41:16.059Z,101431.77
2019-04-28T06:43:44.484Z,101434.92
2019-04-28T06:46:13.218Z,101439.29
2019-04-28T06:48:42.509Z,101446.81
2019-04-28T06:51:11.033Z,101444.14
2019-04-28T06:53:39.468Z,101453.23
2019-04-28T06:56:07.911Z,101456.03
2019-04-28T06:58:36.345Z,101455.05
2019-04-28T07:01:04.982Z,101449.72
2019-04-28T07:03:34.822Z,101447.18
2019-04-28T07:06:04.460Z,101443.78
2019-04-28T07:08:32.875Z,101447.17
2019-04-28T07:11:01.487Z,101450.21
2019-04-28T07:13:29.936Z,101455.30
2019-04-28T07:15:59.612Z,101457.00
2019-04-28T07:18:31.460Z,101470.83
2019-04-28T07:21:01.740Z,101470.83
2019-04-28T07:23:31.345Z,101481.86
2019-04-28T07:26:02.875Z,101485.02
2019-04-28T07:28:31.317Z,101478.47
2019-04-28T07:30:59.751Z,101485.14
2019-04-28T07:33:35.771Z,101490.84
2019-04-28T07:35:58.350Z,101489.98
2019-04-28T07:38:26.820Z,101493.63
2019-04-28T07:40:55.257Z,101494.36
2019-04-28T07:43:25.341Z,101503.57
2019-04-28T07:45:53.950Z,101501.87
2019-04-28T07:48:22.615Z,101515.45
2019-04-28T07:50:51.058Z,101514.13
2019-04-28T07:53:23.604Z,101509.39
2019-04-28T07:55:52.034Z,101509.88
2019-04-28T07:58:20.467Z,101508.30
2019-04-28T08:00:48.991Z,101513.39
2019-04-28T08:03:17.606Z,101513.12
2019-04-28T08:05:46.035Z,101513.84
2019-04-28T08:08:14.485Z,101514.05
2019-04-28T08:10:44.553Z,101519.06
2019-04-28T08:13:13.232Z,101517.80
2019-04-28T08:15:41.666Z,101523.13
2019-04-28T08:18:10.100Z,101528.56
2019-04-28T08:20:38.698Z,101535.95
2019-04-28T08:23:07.145Z,101548.82
2019-04-28T08:25:35.615Z,101553.59
2019-04-28T08:28:04.116Z,101555.66
2019-04-28T08:30:32.541Z,101554.20
2019-04-28T08:33:11.449Z,101567.92
2019-04-28T08:35:39.898Z,101577.87
2019-04-28T08:38:08.559Z,101580.05
2019-04-28T08:40:36.997Z,101580.30
2019-04-28T08:43:05.495Z,101586.73
2019-04-28T08:45:34.108Z,101587.45
2019-04-28T08:48:02.813Z,101594.64
2019-04-28T08:50:31.351Z,101601.55
2019-04-28T08:52:59.898Z,101603.98
2019-04-28T08:55:28.314Z,101599.00
2019-04-28T08:57:56.769Z,101605.31
2019-04-28T09:00:25.352Z,101603.86
2019-04-28T09:02:53.783Z,101608.00
2019-04-28T09:05:22.223Z,101603.37
2019-04-28T09:07:50.645Z,101622.05
2019-04-28T09:10:19.082Z,101627.28
2019-04-28T09:12:47.527Z,101631.64
2019-04-28T09:15:16.411Z,101628.98
2019-04-28T09:17:44.928Z,101626.92
2019-04-28T09:20:13.500Z,101624.73
2019-04-28T09:22:46.869Z,101628.86
2019-04-28T09:25:15.293Z,101631.78
2019-04-28T09:27:44.681Z,101630.08
2019-04-28T09:30:13.836Z,101619.50
2019-04-28T09:32:42.266Z,101623.52
2019-04-28T09:35:11.241Z,101618.78
2019-04-28T09:37:39.653Z,101620.24
2019-04-28T09:40:15.984Z,101625.55
2019-04-28T09:42:46.082Z,101631.50
2019-04-28T09:45:16.592Z,101635.51
2019-04-28T09:47:44.384Z,101642.39
2019-04-28T09:50:12.844Z,101649.12
2019-04-28T09:52:41.380Z,101649.44
2019-04-28T09:55:09.974Z,101655.75
2019-04-28T09:57:38.542Z,101654.30
2019-04-28T10:00:09.685Z,101663.52
2019-04-28T10:02:38.213Z,101667.16
2019-04-28T10:05:08.982Z,101673.95
2019-04-28T10:07:37.417Z,101675.16
2019-04-28T10:10:10.228Z,101672.50
2019-04-28T10:12:38.655Z,101666.67
2019-04-28T10:15:09.235Z,101665.22
2019-04-28T10:17:55.833Z,101672.98
2019-04-28T10:20:32.170Z,101672.11
2019-04-28T10:23:01.074Z,101671.50
2019-04-28T10:25:30.240Z,101676.69
2019-04-28T10:28:03.374Z,101678.02
2019-04-28T10:30:37.050Z,101678.95
2019-04-28T10:33:07.914Z,101670.52
2019-04-28T10:35:43.355Z,101677.02
2019-04-28T10:38:14.355Z,101673.59
2019-04-28T10:40:53.876Z,101670.28
2019-04-28T10:43:22.635Z,101672.98
2019-04-28T10:45:51.637Z,101672.30
2019-04-28T10:48:23.536Z,101684.55
2019-04-28T10:50:53.387Z,101682.99
2019-04-28T10:53:23.749Z,101690.44
2019-04-28T10:55:53.691Z,101691.65
2019-04-28T10:58:23.529Z,101694.20
2019-04-28T11:00:51.231Z,101701.97
2019-04-28T11:03:19.857Z,101690.33
2019-04-28T11:05:48.686Z,101705.91
2019-04-28T11:08:21.868Z,101708.91
2019-04-28T11:10:50.516Z,101715.86
2019-04-28T11:13:21.485Z,101717.45
2019-04-28T11:15:54.119Z,101711.30
2019-04-28T11:18:23.664Z,101712.43
2019-04-28T11:20:52.423Z,101713.02
2019-04-28T11:23:23.222Z,101710.66
2019-04-28T11:25:51.373Z,101714.90
2019-04-28T11:28:19.996Z,101713.77
2019-04-28T11:30:48.462Z,101719.17
2019-04-28T11:33:34.540Z,101721.98
2019-04-28T11:36:03.185Z,101722.70
2019-04-28T11:38:31.759Z,101722.19
2019-04-28T11:41:00.204Z,101709.58
2019-04-28T11:43:28.785Z,101705.81
2019-04-28T11:45:57.309Z,101711.00
2019-04-28T11:48:25.721Z,101710.76
2019-04-28T11:50:54.362Z,101711.63
2019-04-28T11:53:22.849Z,101720.01
2019-04-28T11:55:51.280Z,101716.16
2019-04-28T11:58:19.962Z,101725.60
2019-04-28T12:00:48.416Z,101727.21
2019-04-28T12:03:17.589Z,101733.14
2019-04-28T12:05:47.432Z,101741.19
2019-04-28T12:08:15.850Z,101731.45
2019-04-28T12:10:58.038Z,101737.66
2019-04-28T12:13:44.481Z,101730.82
2019-04-28T12:16:32.548Z,101734.00
2019-04-28T12:19:11.326Z,101724.08
2019-04-28T12:21:39.765Z,101727.75
2019-04-28T12:24:08.222Z,101735.11
2019-04-28T12:26:36.747Z,101740.03
2019-04-28T12:29:05.415Z,101734.40
2019-04-28T12:31:33.979Z,101743.65
2019-04-28T12:34:02.468Z,101741.89
2019-04-28T12:36:30.907Z,101744.51
2019-04-28T12:38:59.315Z,101741.77
2019-04-28T12:41:27.767Z,101744.70
2019-04-28T12:43:56.200Z,101746.95
2019-04-28T12:46:24.660Z,101746.82
2019-04-28T12:48:54.733Z,101758.66
2019-04-28T12:51:23.329Z,101759.33
2019-04-28T12:53:53.479Z,101761.70
2019-04-28T12:56:21.920Z,101770.22
2019-04-28T12:58:52.003Z,101762.99
2019-04-28T13:01:27.925Z,101767.12
2019-04-28T13:04:01.078Z,101687.67
2019-04-28T13:06:29.574Z,101769.02
2019-04-28T13:08:58.361Z,101768.59
2019-04-28T13:11:26.875Z,101767.05
2019-04-28T13:13:55.295Z,101773.55
2019-04-28T13:16:23.721Z,101775.25
2019-04-28T13:18:52.155Z,101776.24
2019-04-28T13:21:20.671Z,101771.92
2019-04-28T13:23:49.371Z,101776.66
2019-04-28T13:26:17.798Z,101774.81
2019-04-28T13:28:46.223Z,101787.76
2019-04-28T13:31:14.828Z,101774.64
2019-04-28T13:33:56.000Z,101786.09
2019-04-28T13:36:14.855Z,101785.45
2019-04-28T13:38:43.617Z,101788.78
2019-04-28T13:41:12.033Z,101790.98
2019-04-28T13:43:40.457Z,101789.42
2019-04-28T13:46:08.904Z,101784.16
2019-04-28T13:48:37.529Z,101793.85
2019-04-28T13:51:06.002Z,101790.95
2019-04-28T13:53:34.492Z,101787.76
2019-04-28T13:56:03.034Z,101799.55
2019-04-28T13:58:33.444Z,101781.20
2019-04-28T14:01:11.889Z,101790.69
2019-04-28T14:03:53.818Z,101788.52
2019-04-28T14:06:28.628Z,101784.73
2019-04-28T14:08:54.143Z,101790.41
2019-04-28T14:11:22.703Z,101795.55
2019-04-28T14:13:51.090Z,101793.34
2019-04-28T14:16:19.545Z,101795.92
2019-04-28T14:18:47.951Z,101800.52
2019-04-28T14:21:16.602Z,101802.70
2019-04-28T14:23:45.262Z,101790.73
2019-04-28T14:26:13.810Z,101797.42
2019-04-28T14:28:42.223Z,101803.22
2019-04-28T14:31:10.689Z,101791.50
2019-04-28T14:33:39.115Z,101793.76
2019-04-28T14:36:10.609Z,101791.45
2019-04-28T14:38:39.101Z,101788.27
2019-04-28T14:41:07.591Z,101790.80
2019-04-28T14:43:36.177Z,101791.77
2019-04-28T14:46:04.606Z,101790.91
2019-04-28T14:48:33.034Z,101791.08
2019-04-28T14:51:01.719Z,101784.23
2019-04-28T14:53:30.145Z,101796.84
2019-04-28T14:55:58.594Z,101794.66
2019-04-28T14:58:27.158Z,101793.53
2019-04-28T15:01:12.341Z,101790.68
2019-04-28T15:03:42.640Z,101797.48
2019-04-28T15:06:12.708Z,101801.19
2019-04-28T15:08:57.754Z,101799.55
2019-04-28T15:11:33.715Z,101809.02
2019-04-28T15:14:02.183Z,101799.23
2019-04-28T15:16:30.643Z,101801.46
2019-04-28T15:19:00.066Z,101798.10
2019-04-28T15:21:28.484Z,101801.67
2019-04-28T15:23:56.925Z,101796.36
2019-04-28T15:26:25.318Z,101800.57
2019-04-28T15:28:53.751Z,101799.91
2019-04-28T15:31:22.181Z,101800.75
2019-04-28T15:33:50.606Z,101810.05
2019-04-28T15:36:19.027Z,101802.89
2019-04-28T15:38:47.446Z,101818.73
2019-04-28T15:41:21.676Z,101815.25
2019-04-28T15:43:46.060Z,101809.17
2019-04-28T15:46:14.475Z,101819.58
2019-04-28T15:48:42.913Z,101822.38
2019-04-28T15:51:11.435Z,101820.81
2019-04-28T15:53:40.203Z,101825.67
2019-04-28T15:56:12.660Z,101828.49
2019-04-28T15:58:41.095Z,101825.45
2019-04-28T16:01:10.142Z,101827.30
2019-04-28T16:03:38.604Z,101820.91
2019-04-28T16:06:07.199Z,101825.55
2019-04-28T16:08:36.402Z,101828.38
2019-04-28T16:11:04.900Z,101824.86
2019-04-28T16:13:33.328Z,101828.33
2019-04-28T16:16:01.790Z,101823.27
2019-04-28T16:18:30.229Z,101829.70
2019-04-28T16:20:58.830Z,101824.70
2019-04-28T16:23:27.263Z,101830.56
2019-04-28T16:25:55.728Z,101825.68
2019-04-28T16:28:24.260Z,101827.48
2019-04-28T16:30:52.752Z,101820.89
2019-04-28T16:33:21.372Z,101826.02
2019-04-28T16:35:49.818Z,101804.76
2019-04-28T16:38:18.273Z,101835.14
2019-04-28T16:40:48.189Z,101762.03
2019-04-28T16:43:17.561Z,101835.28
2019-04-28T16:45:45.996Z,101842.16
2019-04-28T16:48:14.553Z,101841.41
2019-04-28T16:50:42.979Z,101840.88
2019-04-28T16:53:11.406Z,101844.73
2019-04-28T16:55:52.138Z,101840.69
2019-04-28T16:58:31.026Z,101842.73
2019-04-28T17:01:01.662Z,101842.92
2019-04-28T17:03:32.239Z,101844.48
2019-04-28T17:06:01.010Z,101856.95
2019-04-28T17:08:29.487Z,101858.33
2019-04-28T17:10:58.169Z,101858.44
2019-04-28T17:13:26.686Z,101866.02
2019-04-28T17:15:55.163Z,101864.67
2019-04-28T17:18:23.997Z,101865.91
2019-04-28T17:20:54.439Z,101865.52
2019-04-28T17:23:22.576Z,101870.41
2019-04-28T17:25:51.006Z,101867.31
2019-04-28T17:28:19.654Z,101865.27
2019-04-28T17:30:48.088Z,101876.28
2019-04-28T17:33:16.713Z,101877.20
2019-04-28T17:35:45.265Z,101875.75
2019-04-28T17:38:13.783Z,101880.73
2019-04-28T17:40:42.209Z,101880.84
2019-04-28T17:43:10.707Z,101885.59
2019-04-28T17:45:39.214Z,101890.02
2019-04-28T17:48:09.267Z,101897.16
2019-04-28T17:50:37.689Z,101894.32
2019-04-28T17:53:06.207Z,101816.30
2019-04-28T17:55:34.656Z,101899.20
2019-04-28T17:58:03.062Z,101900.55
2019-04-28T18:00:48.513Z,101900.12
2019-04-28T18:03:21.440Z,101897.13
2019-04-28T18:05:57.048Z,101900.78
2019-04-28T18:08:25.567Z,101901.17
2019-04-28T18:10:54.129Z,101903.37
2019-04-28T18:13:22.547Z,101904.74
2019-04-28T18:15:55.333Z,101913.01
2019-04-28T18:18:40.634Z,101905.11
2019-04-28T18:21:09.081Z,101914.81
2019-04-28T18:23:37.513Z,101919.06
2019-04-28T18:26:05.930Z,101920.10
2019-04-28T18:28:34.440Z,101923.31
2019-04-28T18:31:22.757Z,101928.58
2019-04-28T18:34:07.674Z,101934.33
2019-04-28T18:36:50.194Z,101937.38
2019-04-28T18:39:23.401Z,101939.15
2019-04-28T18:41:53.522Z,101940.67
2019-04-28T18:44:22.752Z,101941.14
2019-04-28T18:46:51.373Z,101953.86
2019-04-28T18:49:19.845Z,101951.13
2019-04-28T18:51:48.285Z,101952.61
2019-04-28T18:54:16.717Z,101953.16
2019-04-28T18:56:45.187Z,101959.30
2019-04-28T18:59:13.611Z,101963.48
2019-04-28T19:01:46.366Z,101969.83
2019-04-28T19:04:14.794Z,101967.27
2019-04-28T19:06:43.486Z,101974.73
2019-04-28T19:09:18.933Z,101979.27
2019-04-28T19:11:49.011Z,101976.94
2019-04-28T19:14:21.771Z,101976.00
2019-04-28T19:16:58.055Z,101977.69
2019-04-28T19:19:28.121Z,101984.88
2019-04-28T19:21:57.108Z,101980.97
2019-04-28T19:24:26.456Z,101982.78
2019-04-28T19:26:55.285Z,101989.23
2019-04-28T19:29:23.784Z,101989.08
2019-04-28T19:31:52.258Z,101994.92
2019-04-28T19:34:20.692Z,102000.13
2019-04-28T19:36:49.319Z,102003.37
2019-04-28T19:39:17.726Z,102000.83
2019-04-28T19:41:46.152Z,101997.28
2019-04-28T19:44:14.737Z,101998.84
2019-04-28T19:46:43.161Z,101998.08
2019-04-28T19:49:11.580Z,101998.78
2019-04-28T19:51:40.245Z,102007.84
2019-04-28T19:54:09.535Z,102006.61
2019-04-28T19:56:39.591Z,102012.51
2019-04-28T19:59:18.387Z,102008.83
2019-04-28T20:01:47.255Z,102008.67
2019-04-28T20:04:15.886Z,102013.00
2019-04-28T20:06:45.458Z,102010.53
2019-04-28T20:09:13.899Z,102013.48
2019-04-28T20:11:42.321Z,102015.64
2019-04-28T20:14:10.797Z,102017.00
2019-04-28T20:16:39.717Z,102011.72
2019-04-28T20:19:08.122Z,102014.37
2019-04-28T20:21:36.911Z,102012.13
2019-04-28T20:24:05.596Z,102019.25
2019-04-28T20:26:34.016Z,102023.56
2019-04-28T20:29:02.437Z,102021.20
2019-04-28T20:31:30.881Z,102027.23
2019-04-28T20:33:59.461Z,102033.17
2019-04-28T20:36:32.699Z,102034.23
2019-04-28T20:39:04.247Z,102048.73
2019-04-28T20:41:32.762Z,102047.13
2019-04-28T20:44:01.296Z,102048.66
2019-04-28T20:46:29.712Z,102043.20
2019-04-28T20:48:58.146Z,102045.59
2019-04-28T20:51:26.568Z,102045.89
2019-04-28T20:53:54.993Z,102053.14
2019-04-28T20:56:23.433Z,102050.33
2019-04-28T20:58:51.859Z,102062.52
2019-04-28T21:01:20.275Z,102056.55
2019-04-28T21:03:48.704Z,102061.97
2019-04-28T21:06:17.137Z,102066.64
2019-04-28T21:08:48.543Z,102063.84
2019-04-28T21:11:16.968Z,102062.12
2019-04-28T21:13:45.458Z,102063.94
2019-04-28T21:16:13.897Z,102068.14
2019-04-28T21:18:42.314Z,102072.70
2019-04-28T21:21:10.733Z,102080.80
2019-04-28T21:23:39.156Z,102084.23
2019-04-28T21:26:07.594Z,102083.52
2019-04-28T21:28:36.194Z,102086.66
2019-04-28T21:31:04.724Z,102083.71
2019-04-28T21:33:33.144Z,102086.09
2019-04-28T21:36:01.766Z,102084.00
2019-04-28T21:38:30.198Z,102094.09
2019-04-28T21:40:58.832Z,102093.56
2019-04-28T21:43:31.975Z,102092.91
2019-04-28T21:46:04.737Z,102089.30
2019-04-28T21:48:34.973Z,102093.05
2019-04-28T21:51:03.443Z,102097.91
2019-04-28T21:53:31.878Z,102096.95
2019-04-28T21:56:00.615Z,102091.57
2019-04-28T21:58:33.506Z,102091.77
2019-04-28T22:00:59.718Z,102092.37
2019-04-28T22:03:28.447Z,102088.66
2019-04-28T22:05:57.039Z,102098.63
2019-04-28T22:08:25.567Z,102101.09
2019-04-28T22:10:54.026Z,102100.56
2019-04-28T22:13:22.444Z,102104.73
2019-04-28T22:15:50.858Z,102021.38
2019-04-28T22:18:19.405Z,102101.27
2019-04-28T22:20:47.824Z,102104.23
2019-04-28T22:23:20.599Z,102101.29
2019-04-28T22:25:49.144Z,102106.80
2019-04-28T22:28:17.593Z,102104.70
2019-04-28T22:30:46.028Z,102105.27
2019-04-28T22:33:14.571Z,102104.53
2019-04-28T22:35:43.113Z,102103.55
2019-04-28T22:38:11.649Z,102105.36
2019-04-28T22:40:40.051Z,102101.75
2019-04-28T22:43:08.690Z,102103.08
2019-04-28T22:45:37.206Z,102106.12
2019-04-28T22:48:06.805Z,102106.80
2019-04-28T22:50:37.663Z,102105.94
2019-04-28T22:53:06.175Z,102105.38
2019-04-28T22:55:39.180Z,102100.05
2019-04-28T22:58:12.189Z,102105.56
2019-04-28T23:00:42.457Z,102109.65
2019-04-28T23:03:13.804Z,102104.72
2019-04-28T23:05:42.238Z,102110.70
2019-04-28T23:08:10.657Z,102106.80
2019-04-28T23:10:39.256Z,102102.25
2019-04-28T23:13:07.776Z,102108.30
2019-04-28T23:15:36.200Z,102107.92
2019-04-28T23:18:04.691Z,102107.35
2019-04-28T23:20:34.777Z,102103.27
2019-04-28T23:23:05.213Z,102107.16
2019-04-28T23:25:33.634Z,102102.26
2019-04-28T23:28:02.231Z,102104.83
2019-04-28T23:30:42.186Z,102106.92
2019-04-28T23:33:10.616Z,102096.19
2019-04-28T23:35:39.299Z,102104.55
2019-04-28T23:38:07.734Z,102105.31
2019-04-28T23:40:37.865Z,102100.81
2019-04-28T23:43:10.622Z,102104.23
2019-04-28T23:45:39.054Z,102101.00
2019-04-28T23:48:07.476Z,102107.18
2019-04-28T23:50:37.565Z,102115.92
2019-04-28T23:53:07.628Z,102111.37
2019-04-28T23:55:36.052Z,102106.42
2019-04-28T23:58:04.490Z,102112.59
